createdAt,value
2022-10-10T00:01:37.023Z,82.30
2022-10-10T00:04:06.930Z,82.68
2022-10-10T00:06:36.713Z,82.56
2022-10-10T00:09:05.770Z,82.11
2022-10-10T00:11:34.464Z,81.51
2022-10-10T00:14:03.212Z,81.80
2022-10-10T00:16:31.666Z,81.63
2022-10-10T00:19:00.055Z,82.21
2022-10-10T00:21:28.421Z,81.85
2022-10-10T00:23:58.137Z,82.17
2022-10-10T00:26:26.536Z,82.08
2022-10-10T00:28:54.875Z,82.11
2022-10-10T00:31:23.463Z,82.52
2022-10-10T00:33:51.816Z,82.66
2022-10-10T00:36:21.471Z,82.44
2022-10-10T00:38:49.825Z,81.81
2022-10-10T00:41:19.597Z,81.92
2022-10-10T00:44:03.180Z,81.87
2022-10-10T00:46:32.078Z,82.21
2022-10-10T00:49:01.088Z,82.11
2022-10-10T00:51:29.452Z,81.58
2022-10-10T00:54:02.746Z,81.55
2022-10-10T00:56:39.023Z,81.89
2022-10-10T00:59:11.130Z,81.39
2022-10-10T01:01:41.093Z,81.54
2022-10-10T01:04:34.923Z,81.38
2022-10-10T01:07:07.231Z,81.10
2022-10-10T01:09:38.705Z,81.57
2022-10-10T01:12:19.587Z,81.45
2022-10-10T01:14:58.638Z,81.86
2022-10-10T01:17:33.436Z,81.62
2022-10-10T01:20:44.945Z,81.29
2022-10-10T01:23:51.080Z,81.63
2022-10-10T01:26:48.727Z,81.73
2022-10-10T01:29:26.835Z,81.64
2022-10-10T01:31:57.752Z,81.97
2022-10-10T01:34:33.319Z,82.38
2022-10-10T01:37:09.728Z,82.48
2022-10-10T01:39:45.840Z,81.95
2022-10-10T01:42:20.401Z,82.11
2022-10-10T01:44:53.856Z,82.10
2022-10-10T01:47:23.103Z,82.13
2022-10-10T01:49:55.952Z,82.62
2022-10-10T01:52:34.363Z,83.62
2022-10-10T01:55:16.868Z,83.30
2022-10-10T01:57:59.732Z,83.64
2022-10-10T02:00:29.929Z,82.88
2022-10-10T02:03:06.388Z,83.17
2022-10-10T02:05:41.207Z,83.00
2022-10-10T02:08:13.055Z,83.31
2022-10-10T02:10:45.883Z,83.45
2022-10-10T02:13:16.217Z,83.25
2022-10-10T02:15:49.298Z,83.64
2022-10-10T02:18:21.215Z,83.88
2022-10-10T02:20:51.564Z,83.54
2022-10-10T02:23:22.779Z,83.65
2022-10-10T02:25:55.437Z,83.85
2022-10-10T02:28:26.816Z,83.82
2022-10-10T02:31:00.615Z,83.67
2022-10-10T02:33:34.653Z,83.85
2022-10-10T02:36:03.967Z,84.23
2022-10-10T02:38:32.589Z,84.27
2022-10-10T02:41:04.117Z,83.91
2022-10-10T02:43:34.041Z,84.27
2022-10-10T02:46:08.890Z,84.04
2022-10-10T02:48:37.431Z,84.57
2022-10-10T02:51:06.059Z,83.92
2022-10-10T02:53:35.606Z,84.06
2022-10-10T02:56:03.942Z,84.45
2022-10-10T02:58:32.541Z,83.74
2022-10-10T03:01:00.929Z,84.41
2022-10-10T03:03:30.747Z,84.34
2022-10-10T03:05:59.122Z,84.37
2022-10-10T03:08:27.474Z,83.94
2022-10-10T03:10:57.223Z,84.23
2022-10-10T03:13:25.708Z,84.34
2022-10-10T03:15:54.418Z,84.44
2022-10-10T03:18:23.224Z,84.45
2022-10-10T03:20:53.988Z,84.50
2022-10-10T03:23:22.578Z,84.08
2022-10-10T03:25:50.891Z,84.31
2022-10-10T03:28:19.323Z,84.31
2022-10-10T03:30:48.352Z,84.07
2022-10-10T03:33:16.926Z,84.07
2022-10-10T03:35:45.452Z,83.92
2022-10-10T03:38:15.616Z,83.98
2022-10-10T03:40:45.214Z,84.18
2022-10-10T03:43:15.302Z,84.31
2022-10-10T03:45:45.029Z,84.13
2022-10-10T03:48:13.427Z,84.28
2022-10-10T03:50:41.963Z,84.29
2022-10-10T03:53:10.459Z,84.43
2022-10-10T03:55:42.476Z,84.26
2022-10-10T03:58:11.669Z,84.21
2022-10-10T04:00:40.331Z,84.53
2022-10-10T04:03:09.334Z,84.25
2022-10-10T04:05:39.411Z,84.41
2022-10-10T04:08:08.323Z,84.24
2022-10-10T04:10:36.879Z,84.30
2022-10-10T04:13:06.699Z,84.65
2022-10-10T04:15:35.155Z,84.99
2022-10-10T04:18:03.905Z,84.47
2022-10-10T04:20:32.851Z,85.07
2022-10-10T04:23:02.504Z,84.72
2022-10-10T04:25:30.986Z,84.74
2022-10-10T04:28:01.197Z,84.63
2022-10-10T04:30:34.391Z,85.00
2022-10-10T04:33:03.647Z,84.73
2022-10-10T04:35:32.000Z,84.63
2022-10-10T04:38:01.246Z,85.09
2022-10-10T04:40:29.615Z,84.95
2022-10-10T04:42:58.031Z,84.83
2022-10-10T04:45:27.204Z,84.85
2022-10-10T04:47:57.083Z,85.10
2022-10-10T04:50:26.192Z,84.69
2022-10-10T04:52:54.503Z,84.72
2022-10-10T04:55:22.890Z,84.65
2022-10-10T04:57:51.268Z,84.85
2022-10-10T05:00:19.849Z,85.30
2022-10-10T05:02:48.595Z,84.77
2022-10-10T05:05:18.964Z,84.98
2022-10-10T05:07:50.657Z,84.84
2022-10-10T05:10:21.465Z,84.59
2022-10-10T05:12:50.180Z,84.58
2022-10-10T05:15:19.132Z,84.73
2022-10-10T05:17:47.458Z,85.10
2022-10-10T05:20:15.853Z,84.81
2022-10-10T05:22:45.827Z,84.75
2022-10-10T05:25:14.429Z,84.60
2022-10-10T05:27:42.784Z,84.80
2022-10-10T05:30:12.127Z,84.52
2022-10-10T05:32:40.519Z,84.56
2022-10-10T05:35:09.859Z,84.23
2022-10-10T05:37:38.400Z,84.77
2022-10-10T05:40:09.673Z,84.97
2022-10-10T05:42:38.029Z,85.00
2022-10-10T05:45:07.436Z,84.31
2022-10-10T05:47:35.841Z,84.42
2022-10-10T05:50:05.237Z,85.00
2022-10-10T05:52:35.215Z,84.99
2022-10-10T05:55:03.620Z,85.88
2022-10-10T05:57:33.325Z,85.32
2022-10-10T06:00:01.775Z,85.61
2022-10-10T06:02:30.166Z,85.87
2022-10-10T06:04:58.514Z,85.15
2022-10-10T06:07:36.137Z,85.45
2022-10-10T06:10:15.169Z,85.09
2022-10-10T06:12:44.967Z,85.14
2022-10-10T06:15:13.367Z,85.09
2022-10-10T06:17:41.904Z,85.28
2022-10-10T06:20:10.968Z,85.05
2022-10-10T06:22:39.344Z,84.66
2022-10-10T06:25:23.919Z,84.89
2022-10-10T06:27:57.892Z,84.43
2022-10-10T06:30:26.399Z,84.73
2022-10-10T06:32:57.127Z,84.23
2022-10-10T06:35:26.081Z,84.29
2022-10-10T06:37:54.483Z,84.89
2022-10-10T06:40:22.839Z,84.57
2022-10-10T06:42:51.354Z,84.35
2022-10-10T06:45:21.291Z,84.46
2022-10-10T06:47:50.168Z,84.22
2022-10-10T06:50:18.708Z,84.44
2022-10-10T06:52:47.631Z,84.05
2022-10-10T06:55:16.631Z,84.28
2022-10-10T06:57:45.042Z,83.96
2022-10-10T07:00:14.808Z,83.91
2022-10-10T07:02:45.036Z,83.89
2022-10-10T07:05:15.916Z,84.10
2022-10-10T07:07:45.468Z,84.58
2022-10-10T07:10:15.625Z,84.47
2022-10-10T07:12:44.976Z,84.79
2022-10-10T07:15:13.791Z,84.62
2022-10-10T07:17:42.380Z,84.70
2022-10-10T07:20:12.272Z,84.45
2022-10-10T07:22:43.798Z,84.53
2022-10-10T07:25:12.366Z,84.62
2022-10-10T07:27:40.833Z,84.67
2022-10-10T07:30:10.367Z,84.45
2022-10-10T07:32:38.753Z,84.90
2022-10-10T07:35:07.510Z,84.54
2022-10-10T07:37:37.483Z,84.83
2022-10-10T07:40:09.631Z,84.88
2022-10-10T07:42:38.303Z,85.02
2022-10-10T07:45:07.587Z,85.13
2022-10-10T07:47:36.123Z,84.99
2022-10-10T07:50:06.167Z,84.99
2022-10-10T07:52:35.048Z,85.21
2022-10-10T07:55:06.124Z,85.17
2022-10-10T07:57:35.139Z,85.33
2022-10-10T08:00:04.754Z,85.54
2022-10-10T08:02:33.096Z,85.66
2022-10-10T08:05:01.568Z,85.88
2022-10-10T08:07:30.020Z,85.96
2022-10-10T08:09:58.564Z,86.07
2022-10-10T08:12:28.279Z,86.29
2022-10-10T08:14:56.677Z,86.48
2022-10-10T08:17:25.107Z,86.88
2022-10-10T08:19:53.439Z,86.72
2022-10-10T08:22:21.798Z,86.82
2022-10-10T08:24:50.211Z,86.73
2022-10-10T08:27:19.381Z,86.71
2022-10-10T08:29:49.252Z,86.97
2022-10-10T08:32:17.619Z,86.89
2022-10-10T08:34:45.999Z,86.62
2022-10-10T08:37:14.319Z,86.64
2022-10-10T08:39:42.714Z,86.51
2022-10-10T08:42:18.004Z,86.40
2022-10-10T08:44:52.049Z,86.60
2022-10-10T08:47:23.039Z,86.21
2022-10-10T08:49:56.299Z,86.19
2022-10-10T08:52:33.041Z,85.44
2022-10-10T08:55:05.027Z,85.51
2022-10-10T08:57:36.647Z,85.24
2022-10-10T09:00:09.428Z,85.00
2022-10-10T09:02:55.858Z,84.73
2022-10-10T09:05:38.836Z,84.45
2022-10-10T09:08:26.877Z,84.22
2022-10-10T09:10:58.565Z,84.14
2022-10-10T09:13:34.631Z,84.00
2022-10-10T09:16:09.159Z,83.57
2022-10-10T09:18:47.441Z,83.35
2022-10-10T09:21:19.410Z,83.15
2022-10-10T09:23:53.370Z,82.91
2022-10-10T09:26:26.455Z,82.66
2022-10-10T09:29:01.096Z,82.52
2022-10-10T09:31:37.222Z,82.23
2022-10-10T09:34:10.769Z,82.04
2022-10-10T09:36:39.341Z,81.67
2022-10-10T09:39:18.494Z,81.22
2022-10-10T09:41:52.007Z,81.12
2022-10-10T09:44:22.380Z,80.98
2022-10-10T09:46:52.496Z,80.72
2022-10-10T09:49:21.852Z,80.69
2022-10-10T09:51:50.743Z,80.58
2022-10-10T09:54:20.962Z,80.28
2022-10-10T09:56:52.824Z,80.20
2022-10-10T09:59:42.124Z,79.66
2022-10-10T10:02:18.485Z,79.86
2022-10-10T10:04:47.851Z,79.70
2022-10-10T10:07:21.831Z,79.37
2022-10-10T10:09:52.274Z,79.40
2022-10-10T10:12:25.172Z,79.05
2022-10-10T10:15:00.933Z,78.55
2022-10-10T10:17:31.219Z,78.32
2022-10-10T10:19:59.808Z,78.00
2022-10-10T10:22:34.607Z,77.85
2022-10-10T10:25:32.594Z,77.03
2022-10-10T10:28:18.047Z,77.01
2022-10-10T10:30:46.947Z,77.34
2022-10-10T10:33:35.627Z,77.01
2022-10-10T10:36:16.256Z,77.15
2022-10-10T10:38:49.483Z,76.98
2022-10-10T10:41:30.679Z,76.62
2022-10-10T10:44:15.090Z,76.45
2022-10-10T10:46:54.871Z,76.46
2022-10-10T10:49:33.347Z,76.35
2022-10-10T10:52:37.107Z,75.75
2022-10-10T10:55:17.869Z,76.03
2022-10-10T10:58:58.635Z,76.09
2022-10-10T11:01:23.704Z,76.49
2022-10-10T11:05:21.128Z,76.38
2022-10-10T11:07:18.458Z,75.92
2022-10-10T11:09:56.599Z,75.97
2022-10-10T11:12:54.549Z,75.05
2022-10-10T11:15:37.531Z,75.52
2022-10-10T11:18:19.032Z,75.36
2022-10-10T11:20:50.656Z,75.25
2022-10-10T11:23:26.091Z,74.81
2022-10-10T11:25:59.570Z,74.37
2022-10-10T11:28:34.008Z,74.07
2022-10-10T11:31:06.801Z,73.53
2022-10-10T11:33:40.016Z,73.08
2022-10-10T11:36:17.139Z,72.16
2022-10-10T11:38:52.516Z,71.73
2022-10-10T11:41:25.205Z,71.48
2022-10-10T11:43:57.242Z,71.27
2022-10-10T11:46:34.111Z,71.11
2022-10-10T11:49:09.974Z,70.83
2022-10-10T11:51:44.520Z,70.73
2022-10-10T11:54:26.483Z,70.69
2022-10-10T11:57:02.013Z,70.99
2022-10-10T11:59:37.322Z,70.75
2022-10-10T12:02:18.848Z,70.53
2022-10-10T12:04:47.843Z,70.62
2022-10-10T12:07:22.560Z,70.38
2022-10-10T12:09:58.337Z,69.85
2022-10-10T12:12:31.352Z,69.29
2022-10-10T12:15:03.152Z,69.09
2022-10-10T12:17:39.692Z,68.83
2022-10-10T12:20:32.030Z,68.74
2022-10-10T12:23:22.375Z,68.54
2022-10-10T12:25:52.105Z,68.59
2022-10-10T12:28:37.119Z,66.83
2022-10-10T12:31:30.117Z,66.64
2022-10-10T12:34:10.502Z,67.47
2022-10-10T12:36:56.798Z,67.10
2022-10-10T12:40:02.328Z,67.21
2022-10-10T12:42:34.728Z,68.25
2022-10-10T12:45:03.247Z,68.26
2022-10-10T12:48:03.885Z,68.08
2022-10-10T12:50:35.041Z,68.30
2022-10-10T12:53:05.895Z,67.83
2022-10-10T12:55:42.795Z,67.62
2022-10-10T12:58:26.534Z,67.33
2022-10-10T13:00:58.456Z,66.72
2022-10-10T13:03:31.742Z,65.97
2022-10-10T13:06:06.438Z,65.65
2022-10-10T13:08:38.288Z,65.45
2022-10-10T13:11:10.779Z,65.18
2022-10-10T13:13:41.547Z,64.85
2022-10-10T13:16:14.472Z,64.61
2022-10-10T13:18:49.495Z,64.62
2022-10-10T13:21:22.137Z,64.93
2022-10-10T13:26:46.911Z,65.44
2022-10-10T13:29:24.419Z,65.54
2022-10-10T13:31:56.491Z,66.09
2022-10-10T13:34:30.700Z,66.15
2022-10-10T13:37:00.815Z,65.89
2022-10-10T13:39:31.487Z,65.80
2022-10-10T13:42:01.027Z,65.65
2022-10-10T13:44:47.490Z,65.76
2022-10-10T13:47:52.647Z,65.83
2022-10-10T13:50:24.427Z,66.36
2022-10-10T13:53:26.079Z,65.98
2022-10-10T13:56:02.330Z,66.45
2022-10-10T13:58:33.911Z,66.46
2022-10-10T14:01:05.332Z,66.44
2022-10-10T14:03:34.955Z,66.66
2022-10-10T14:06:03.431Z,66.64
2022-10-10T14:08:34.714Z,66.97
2022-10-10T14:11:06.982Z,66.97
2022-10-10T14:13:38.707Z,67.11
2022-10-10T14:16:24.384Z,67.05
2022-10-10T14:18:54.209Z,67.29
2022-10-10T14:21:22.699Z,67.51
2022-10-10T14:23:51.064Z,67.46
2022-10-10T14:26:21.931Z,67.34
2022-10-10T14:28:50.512Z,67.45
2022-10-10T14:31:20.511Z,67.47
2022-10-10T14:33:48.896Z,67.58
2022-10-10T14:36:17.347Z,67.79
2022-10-10T14:38:45.761Z,67.76
2022-10-10T14:41:14.283Z,67.97
2022-10-10T14:43:45.878Z,68.15
2022-10-10T14:46:19.617Z,68.51
2022-10-10T14:48:49.434Z,68.15
2022-10-10T14:51:33.905Z,68.38
2022-10-10T14:54:11.060Z,68.22
2022-10-10T14:57:07.691Z,68.76
2022-10-10T14:59:48.197Z,68.66
2022-10-10T15:02:20.636Z,68.66
2022-10-10T15:04:50.960Z,68.99
2022-10-10T15:07:19.865Z,68.97
2022-10-10T15:10:30.877Z,69.24
2022-10-10T15:12:41.048Z,69.23
2022-10-10T15:15:11.172Z,69.47
2022-10-10T15:17:39.663Z,69.64
2022-10-10T15:20:12.293Z,69.81
2022-10-10T15:22:41.419Z,69.92
2022-10-10T15:25:10.553Z,69.92
2022-10-10T15:27:39.236Z,70.17
2022-10-10T15:30:09.048Z,70.50
2022-10-10T15:32:40.429Z,70.57
2022-10-10T15:35:14.690Z,70.62
2022-10-10T15:37:44.658Z,70.86
2022-10-10T15:40:14.734Z,70.85
2022-10-10T15:42:43.406Z,70.88
2022-10-10T15:45:12.469Z,71.01
2022-10-10T15:47:46.505Z,70.98
2022-10-10T15:50:16.441Z,71.02
2022-10-10T15:52:44.979Z,71.04
2022-10-10T15:55:13.311Z,71.20
2022-10-10T15:57:41.712Z,71.52
2022-10-10T16:00:10.829Z,71.61
2022-10-10T16:02:39.312Z,71.89
2022-10-10T16:05:08.557Z,72.22
2022-10-10T16:07:46.619Z,73.13
2022-10-10T16:10:16.455Z,73.84
2022-10-10T16:12:44.840Z,74.51
2022-10-10T16:15:13.540Z,74.67
2022-10-10T16:17:41.891Z,75.00
2022-10-10T16:20:11.251Z,75.27
2022-10-10T16:22:41.145Z,75.54
2022-10-10T16:25:21.961Z,75.56
2022-10-10T16:27:51.936Z,75.61
2022-10-10T16:30:21.014Z,75.84
2022-10-10T16:32:49.875Z,76.08
2022-10-10T16:35:18.490Z,76.21
2022-10-10T16:37:48.275Z,76.40
2022-10-10T16:40:16.742Z,76.52
2022-10-10T16:42:45.597Z,76.77
2022-10-10T16:45:14.043Z,76.94
2022-10-10T16:47:42.438Z,77.30
2022-10-10T16:50:11.519Z,77.54
2022-10-10T16:52:40.549Z,77.51
2022-10-10T16:55:14.064Z,77.67
2022-10-10T16:57:42.400Z,77.84
2022-10-10T17:00:12.044Z,78.17
2022-10-10T17:02:42.412Z,78.39
2022-10-10T17:05:11.203Z,78.48
2022-10-10T17:07:39.819Z,78.39
2022-10-10T17:10:10.880Z,78.54
2022-10-10T17:12:39.235Z,78.63
2022-10-10T17:15:08.681Z,78.64
2022-10-10T17:17:37.804Z,78.77
2022-10-10T17:20:07.524Z,79.51
2022-10-10T17:22:35.951Z,79.79
2022-10-10T17:25:04.922Z,79.89
2022-10-10T17:27:35.969Z,80.29
2022-10-10T17:30:05.497Z,80.56
2022-10-10T17:32:33.919Z,80.66
2022-10-10T17:35:02.554Z,80.80
2022-10-10T17:37:31.095Z,81.07
2022-10-10T17:39:59.609Z,81.09
2022-10-10T17:42:28.092Z,81.03
2022-10-10T17:44:59.517Z,81.08
2022-10-10T17:47:28.468Z,80.96
2022-10-10T17:49:56.854Z,81.30
2022-10-10T17:52:25.951Z,81.58
2022-10-10T17:54:54.316Z,81.54
2022-10-10T17:57:22.679Z,81.53
2022-10-10T17:59:51.069Z,81.61
2022-10-10T18:02:20.936Z,81.47
2022-10-10T18:04:49.303Z,81.56
2022-10-10T18:07:18.760Z,81.52
2022-10-10T18:09:47.242Z,81.60
2022-10-10T18:12:15.661Z,81.39
2022-10-10T18:14:44.151Z,81.53
2022-10-10T18:17:13.872Z,81.49
2022-10-10T18:19:43.684Z,81.53
2022-10-10T18:22:12.046Z,81.36
2022-10-10T18:24:40.659Z,81.11
2022-10-10T18:27:09.515Z,80.96
2022-10-10T18:29:39.572Z,80.78
2022-10-10T18:32:08.052Z,80.47
2022-10-10T18:34:36.683Z,80.18
2022-10-10T18:37:06.971Z,80.16
2022-10-10T18:39:37.303Z,80.12
2022-10-10T18:42:06.004Z,80.01
2022-10-10T18:44:34.568Z,80.00
2022-10-10T18:47:03.239Z,80.08
2022-10-10T18:49:31.660Z,79.87
2022-10-10T18:52:00.016Z,79.83
2022-10-10T18:54:30.730Z,79.72
2022-10-10T18:56:59.443Z,79.58
2022-10-10T18:59:27.812Z,79.51
2022-10-10T19:01:56.360Z,79.38
2022-10-10T19:04:25.196Z,79.31
2022-10-10T19:06:57.641Z,79.36
2022-10-10T19:09:27.067Z,79.02
2022-10-10T19:11:57.036Z,79.14
2022-10-10T19:14:25.437Z,79.16
2022-10-10T19:16:53.887Z,79.05
2022-10-10T19:19:22.323Z,78.89
2022-10-10T19:21:51.260Z,78.78
2022-10-10T19:24:21.404Z,78.64
2022-10-10T19:26:53.354Z,78.39
2022-10-10T19:29:24.395Z,78.32
2022-10-10T19:31:53.191Z,78.27
2022-10-10T19:34:21.825Z,78.44
2022-10-10T19:36:51.064Z,78.49
2022-10-10T19:39:19.526Z,78.50
2022-10-10T19:41:48.386Z,78.45
2022-10-10T19:44:16.793Z,78.52
2022-10-10T19:46:46.472Z,78.35
2022-10-10T19:49:14.844Z,78.37
2022-10-10T19:51:43.219Z,78.54
2022-10-10T19:54:11.722Z,78.34
2022-10-10T19:56:40.186Z,78.46
2022-10-10T19:59:08.568Z,78.36
2022-10-10T20:01:37.287Z,78.59
2022-10-10T20:04:07.190Z,78.69
2022-10-10T20:06:35.610Z,78.62
2022-10-10T20:09:08.326Z,78.65
2022-10-10T20:11:39.783Z,78.94
2022-10-10T20:14:09.011Z,78.74
2022-10-10T20:16:37.682Z,78.83
2022-10-10T20:19:07.446Z,78.84
2022-10-10T20:21:36.291Z,79.05
2022-10-10T20:24:07.442Z,79.06
2022-10-10T20:26:36.484Z,78.97
2022-10-10T20:29:05.045Z,78.92
2022-10-10T20:31:35.795Z,79.01
2022-10-10T20:34:05.656Z,79.07
2022-10-10T20:36:36.279Z,79.35
2022-10-10T20:39:08.017Z,79.23
2022-10-10T20:41:37.666Z,79.34
2022-10-10T20:44:08.564Z,79.52
2022-10-10T20:46:38.553Z,79.44
2022-10-10T20:49:09.629Z,79.22
2022-10-10T20:51:39.385Z,78.99
2022-10-10T20:54:08.414Z,79.14
2022-10-10T20:56:37.054Z,79.04
2022-10-10T20:59:06.866Z,79.33
2022-10-10T21:01:35.602Z,79.74
2022-10-10T21:04:04.599Z,80.02
2022-10-10T21:06:36.108Z,79.89
2022-10-10T21:09:09.063Z,79.88
2022-10-10T21:11:39.016Z,80.28
2022-10-10T21:14:07.506Z,80.30
2022-10-10T21:16:39.367Z,80.24
2022-10-10T21:19:10.196Z,80.08
2022-10-10T21:21:39.318Z,80.12
2022-10-10T21:24:12.079Z,80.14
2022-10-10T21:26:41.804Z,80.04
2022-10-10T21:29:10.719Z,80.07
2022-10-10T21:31:40.456Z,80.13
2022-10-10T21:34:13.515Z,80.28
2022-10-10T21:36:42.132Z,80.26
2022-10-10T21:39:12.315Z,80.54
2022-10-10T21:41:40.889Z,80.57
2022-10-10T21:44:11.400Z,80.56
2022-10-10T21:46:39.804Z,80.71
2022-10-10T21:49:09.943Z,80.61
2022-10-10T21:51:40.027Z,80.65
2022-10-10T21:54:09.303Z,80.66
2022-10-10T21:56:39.277Z,80.90
2022-10-10T21:59:08.394Z,80.81
2022-10-10T22:01:37.679Z,80.91
2022-10-10T22:04:07.143Z,80.65
2022-10-10T22:06:36.148Z,80.56
2022-10-10T22:09:05.933Z,80.74
2022-10-10T22:11:35.543Z,80.98
2022-10-10T22:14:06.020Z,80.89
2022-10-10T22:16:35.147Z,80.90
2022-10-10T22:19:04.716Z,80.96
2022-10-10T22:21:35.016Z,81.16
2022-10-10T22:24:06.990Z,81.23
2022-10-10T22:26:36.224Z,81.23
2022-10-10T22:29:06.203Z,81.42
2022-10-10T22:31:37.500Z,81.49
2022-10-10T22:34:06.612Z,81.45
2022-10-10T22:36:35.561Z,81.42
2022-10-10T22:39:04.667Z,81.45
2022-10-10T22:41:33.060Z,81.52
2022-10-10T22:44:03.236Z,81.43
2022-10-10T22:46:33.171Z,81.54
2022-10-10T22:49:02.351Z,81.33
2022-10-10T22:51:30.739Z,81.67
2022-10-10T22:53:59.215Z,81.84
2022-10-10T22:56:27.608Z,81.54
2022-10-10T22:58:56.171Z,81.79
2022-10-10T23:01:26.991Z,81.98
2022-10-10T23:04:00.381Z,82.06
2022-10-10T23:06:29.228Z,82.27
2022-10-10T23:08:58.142Z,82.10
2022-10-10T23:11:26.599Z,82.21
2022-10-10T23:13:54.930Z,82.10
2022-10-10T23:16:23.507Z,82.05
2022-10-10T23:18:51.951Z,82.03
2022-10-10T23:21:21.920Z,82.45
2022-10-10T23:23:50.328Z,82.12
2022-10-10T23:26:18.704Z,82.45
2022-10-10T23:28:47.191Z,82.26
2022-10-10T23:31:15.765Z,82.68
2022-10-10T23:33:44.397Z,82.77
2022-10-10T23:36:14.483Z,82.52
2022-10-10T23:38:44.892Z,82.76
2022-10-10T23:41:14.202Z,82.95
2022-10-10T23:43:42.856Z,83.06
2022-10-10T23:46:11.658Z,82.83
2022-10-10T23:48:40.071Z,83.08
2022-10-10T23:51:08.472Z,83.12
2022-10-10T23:53:37.259Z,83.48
2022-10-10T23:56:08.088Z,83.36
2022-10-10T23:58:36.689Z,83.13
